createdAt,value
2022-11-23T00:00:20.904Z,1.00
2022-11-23T00:03:00.130Z,0.80
2022-11-23T00:05:33.400Z,0.80
2022-11-23T00:08:06.521Z,0.80
2022-11-23T00:10:39.489Z,1.03
2022-11-23T00:13:12.405Z,1.03
2022-11-23T00:15:45.281Z,0.90
2022-11-23T00:18:18.185Z,0.90
2022-11-23T00:20:51.065Z,1.00
2022-11-23T00:23:24.024Z,1.13
2022-11-23T00:25:56.940Z,1.27
2022-11-23T00:28:29.840Z,0.97
2022-11-23T00:31:02.916Z,1.00
2022-11-23T00:33:35.858Z,0.90
2022-11-23T00:36:10.996Z,1.43
2022-11-23T00:38:44.260Z,1.40
2022-11-23T00:41:19.128Z,1.27
2022-11-23T00:43:52.616Z,0.80
2022-11-23T00:46:26.598Z,1.10
2022-11-23T00:49:00.409Z,1.20
2022-11-23T00:51:34.738Z,0.67
2022-11-23T00:54:07.662Z,1.03
2022-11-23T00:56:40.839Z,1.10
2022-11-23T00:59:13.747Z,1.00
2022-11-23T01:01:46.731Z,1.10
2022-11-23T01:04:20.924Z,1.07
2022-11-23T01:06:56.934Z,1.03
2022-11-23T01:09:30.327Z,1.30
2022-11-23T01:12:03.486Z,0.97
2022-11-23T01:14:36.429Z,1.10
2022-11-23T01:17:11.001Z,0.83
2022-11-23T01:19:43.946Z,0.80
2022-11-23T01:22:20.121Z,1.00
2022-11-23T01:24:55.660Z,1.20
2022-11-23T01:27:28.543Z,1.77
2022-11-23T01:30:01.434Z,0.73
2022-11-23T01:32:34.407Z,1.40
2022-11-23T01:35:07.507Z,1.60
2022-11-23T01:37:40.439Z,1.17
2022-11-23T01:40:14.947Z,1.30
2022-11-23T01:42:58.835Z,1.33
2022-11-23T01:45:42.544Z,1.10
2022-11-23T01:48:23.588Z,1.23
2022-11-23T01:50:57.619Z,1.10
2022-11-23T01:53:30.691Z,1.10
2022-11-23T01:56:05.220Z,1.10
2022-11-23T01:58:40.545Z,1.00
2022-11-23T02:01:13.887Z,1.07
2022-11-23T02:03:49.173Z,1.38
2022-11-23T02:06:23.913Z,1.20
2022-11-23T02:08:57.073Z,1.30
2022-11-23T02:11:29.981Z,1.17
2022-11-23T02:14:02.910Z,1.30
2022-11-23T02:16:45.371Z,0.90
2022-11-23T02:19:41.354Z,1.20
2022-11-23T02:22:19.400Z,1.40
2022-11-23T02:24:53.946Z,1.20
2022-11-23T02:27:28.179Z,0.87
2022-11-23T02:30:04.569Z,1.27
2022-11-23T02:32:38.743Z,1.20
2022-11-23T02:35:12.672Z,1.20
2022-11-23T02:37:45.953Z,1.13
2022-11-23T02:40:29.866Z,1.47
2022-11-23T02:43:04.191Z,1.27
2022-11-23T02:45:39.574Z,0.93
2022-11-23T02:48:12.463Z,1.30
2022-11-23T02:50:45.604Z,1.20
2022-11-23T02:53:19.045Z,1.03
2022-11-23T02:55:51.937Z,1.00
2022-11-23T02:58:24.878Z,1.23
2022-11-23T03:00:57.945Z,1.37
2022-11-23T03:03:30.943Z,1.30
2022-11-23T03:06:03.884Z,1.13
2022-11-23T03:08:38.800Z,0.90
2022-11-23T03:11:11.749Z,0.97
2022-11-23T03:13:45.166Z,1.52
2022-11-23T03:16:19.097Z,1.10
2022-11-23T03:18:54.023Z,1.20
2022-11-23T03:21:27.148Z,0.90
2022-11-23T03:24:00.432Z,1.03
2022-11-23T03:26:33.789Z,1.27
2022-11-23T03:29:14.849Z,0.90
2022-11-23T03:31:48.640Z,1.13
2022-11-23T03:34:24.025Z,1.00
2022-11-23T03:36:57.673Z,0.80
2022-11-23T03:39:31.825Z,1.27
2022-11-23T03:42:36.930Z,1.03
2022-11-23T03:45:10.408Z,1.00
2022-11-23T03:47:44.491Z,1.13
2022-11-23T03:50:17.827Z,0.90
2022-11-23T03:52:50.889Z,1.00
2022-11-23T03:55:23.963Z,1.10
2022-11-23T03:58:01.317Z,1.20
2022-11-23T04:00:37.874Z,1.00
2022-11-23T04:03:11.115Z,1.00
2022-11-23T04:06:02.639Z,1.20
2022-11-23T04:08:58.881Z,1.00
2022-11-23T04:11:58.330Z,1.17
2022-11-23T04:14:31.391Z,1.20
2022-11-23T04:17:05.860Z,1.07
2022-11-23T04:19:39.451Z,1.30
2022-11-23T04:22:12.487Z,1.13
2022-11-23T04:24:48.248Z,1.00
2022-11-23T04:27:21.157Z,0.97
2022-11-23T04:29:54.077Z,1.50
2022-11-23T04:32:28.451Z,1.23
2022-11-23T04:35:01.614Z,1.03
2022-11-23T04:37:34.705Z,1.60
2022-11-23T04:40:08.116Z,1.07
2022-11-23T04:42:46.751Z,1.30
2022-11-23T04:45:20.111Z,0.90
2022-11-23T04:47:53.272Z,0.93
2022-11-23T04:50:28.082Z,0.97
2022-11-23T04:53:02.417Z,1.47
2022-11-23T04:55:43.540Z,0.93
2022-11-23T04:58:17.403Z,1.10
2022-11-23T05:00:52.431Z,1.40
2022-11-23T05:03:27.016Z,0.80
2022-11-23T05:06:00.468Z,1.10
2022-11-23T05:08:37.870Z,1.03
2022-11-23T05:11:33.923Z,1.10
2022-11-23T05:14:08.138Z,1.70
2022-11-23T05:16:41.480Z,1.10
2022-11-23T05:19:14.970Z,1.00
2022-11-23T05:21:47.868Z,1.27
2022-11-23T05:24:21.984Z,1.10
2022-11-23T05:27:06.586Z,1.23
2022-11-23T05:29:39.708Z,1.30
2022-11-23T05:32:13.839Z,1.00
2022-11-23T05:34:47.284Z,1.10
2022-11-23T05:37:22.106Z,1.20
2022-11-23T05:40:04.411Z,1.10
2022-11-23T05:42:37.943Z,1.00
2022-11-23T05:45:19.865Z,0.97
2022-11-23T05:47:58.295Z,1.00
2022-11-23T05:50:46.508Z,1.10
2022-11-23T05:53:37.043Z,0.90
2022-11-23T05:56:15.982Z,1.20
2022-11-23T05:59:08.233Z,1.23
2022-11-23T06:01:43.387Z,1.10
2022-11-23T06:04:19.674Z,1.40
2022-11-23T06:06:54.512Z,0.80
2022-11-23T06:09:27.903Z,0.80
2022-11-23T06:12:04.287Z,1.10
2022-11-23T06:14:37.451Z,1.03
2022-11-23T06:17:10.501Z,1.58
2022-11-23T06:19:53.227Z,0.97
2022-11-23T06:22:26.256Z,1.20
2022-11-23T06:25:07.016Z,0.93
2022-11-23T06:27:52.211Z,0.90
2022-11-23T06:30:30.613Z,1.27
2022-11-23T06:33:09.143Z,1.30
2022-11-23T06:35:54.962Z,1.00
2022-11-23T06:38:29.961Z,0.70
2022-11-23T06:41:10.076Z,0.90
2022-11-23T06:43:43.013Z,0.90
2022-11-23T06:46:18.366Z,1.20
2022-11-23T06:48:52.579Z,0.90
2022-11-23T06:51:26.594Z,1.20
2022-11-23T06:53:59.567Z,1.20
2022-11-23T06:56:33.021Z,1.27
2022-11-23T06:59:06.072Z,1.00
2022-11-23T07:01:39.588Z,1.00
2022-11-23T07:04:15.865Z,1.30
2022-11-23T07:06:53.790Z,0.87
2022-11-23T07:09:41.453Z,0.90
2022-11-23T07:12:37.507Z,1.00
2022-11-23T07:15:10.722Z,1.20
2022-11-23T07:17:45.115Z,1.40
2022-11-23T07:20:18.313Z,1.30
2022-11-23T07:23:07.756Z,1.50
2022-11-23T07:25:40.786Z,1.40
2022-11-23T07:28:14.393Z,1.60
2022-11-23T07:30:47.340Z,2.10
2022-11-23T07:33:21.411Z,2.00
2022-11-23T07:35:55.335Z,1.83
2022-11-23T07:38:28.980Z,1.83
2022-11-23T07:41:03.661Z,2.70
2022-11-23T07:43:56.961Z,2.03
2022-11-23T07:46:30.254Z,1.93
2022-11-23T07:49:04.120Z,1.60
2022-11-23T07:51:37.472Z,1.87
2022-11-23T07:54:10.393Z,1.27
2022-11-23T07:56:43.332Z,1.40
2022-11-23T07:59:16.264Z,1.80
2022-11-23T08:01:53.097Z,1.10
2022-11-23T08:04:29.521Z,1.30
2022-11-23T08:07:03.910Z,1.53
2022-11-23T08:09:37.365Z,1.30
2022-11-23T08:12:10.255Z,1.70
2022-11-23T08:14:43.227Z,1.80
2022-11-23T08:17:16.184Z,2.10
2022-11-23T08:19:49.210Z,1.50
2022-11-23T08:22:22.544Z,1.93
2022-11-23T08:24:55.591Z,1.73
2022-11-23T08:27:28.474Z,1.67
2022-11-23T08:30:01.464Z,2.47
2022-11-23T08:32:34.379Z,1.97
2022-11-23T08:35:07.506Z,1.80
2022-11-23T08:37:40.392Z,1.93
2022-11-23T08:40:13.771Z,2.47
2022-11-23T08:42:48.088Z,2.63
2022-11-23T08:45:21.579Z,2.40
2022-11-23T08:47:55.627Z,2.70
2022-11-23T08:50:34.544Z,2.90
2022-11-23T08:53:07.608Z,3.23
2022-11-23T08:55:40.779Z,2.77
2022-11-23T08:58:14.120Z,3.43
2022-11-23T09:00:47.235Z,2.83
2022-11-23T09:03:20.230Z,3.73
2022-11-23T09:05:54.518Z,4.18
2022-11-23T09:08:27.652Z,3.43
2022-11-23T09:11:01.455Z,3.50
2022-11-23T09:13:37.989Z,3.57
2022-11-23T09:16:10.980Z,3.10
2022-11-23T09:18:43.956Z,3.20
2022-11-23T09:21:16.971Z,3.17
2022-11-23T09:23:49.927Z,3.27
2022-11-23T09:26:23.178Z,3.07
2022-11-23T09:28:56.093Z,3.17
2022-11-23T09:31:29.085Z,3.40
2022-11-23T09:34:02.027Z,3.50
2022-11-23T09:36:34.986Z,3.30
2022-11-23T09:39:08.515Z,2.90
2022-11-23T09:41:47.289Z,2.97
2022-11-23T09:44:38.753Z,3.53
2022-11-23T09:47:30.028Z,3.30
2022-11-23T09:50:10.119Z,2.83
2022-11-23T09:52:45.275Z,3.10
2022-11-23T09:55:20.794Z,3.27
2022-11-23T09:57:57.336Z,3.00
2022-11-23T10:00:34.861Z,3.20
2022-11-23T10:03:12.082Z,2.60
2022-11-23T10:05:50.684Z,3.37
2022-11-23T10:08:37.185Z,3.00
2022-11-23T10:11:25.206Z,3.40
2022-11-23T10:14:08.995Z,3.00
2022-11-23T10:16:48.066Z,2.80
2022-11-23T10:19:39.903Z,2.50
2022-11-23T10:22:24.853Z,2.80
2022-11-23T10:24:57.846Z,2.40
2022-11-23T10:27:31.133Z,2.57
2022-11-23T10:30:04.217Z,3.40
2022-11-23T10:32:46.323Z,2.93
2022-11-23T10:35:30.198Z,3.10
2022-11-23T10:38:18.501Z,2.57
2022-11-23T10:40:57.976Z,2.50
2022-11-23T10:43:50.643Z,2.70
2022-11-23T10:46:25.969Z,3.07
2022-11-23T10:49:17.303Z,2.90
2022-11-23T10:51:50.169Z,2.43
2022-11-23T10:54:23.062Z,2.50
2022-11-23T10:56:56.936Z,2.10
2022-11-23T10:59:37.283Z,2.47
2022-11-23T11:02:25.198Z,2.33
2022-11-23T11:05:35.487Z,2.70
2022-11-23T11:08:18.814Z,1.83
2022-11-23T11:10:58.888Z,2.57
2022-11-23T11:13:33.493Z,2.57
2022-11-23T11:16:09.476Z,2.67
2022-11-23T11:18:42.404Z,2.50
2022-11-23T11:21:18.902Z,2.43
2022-11-23T11:23:54.105Z,2.30
2022-11-23T11:26:31.230Z,2.23
2022-11-23T11:29:05.628Z,2.33
2022-11-23T11:32:23.675Z,1.93
2022-11-23T11:35:04.327Z,2.07
2022-11-23T11:37:39.996Z,2.00
2022-11-23T11:40:19.001Z,1.73
2022-11-23T11:42:51.910Z,1.90
2022-11-23T11:45:27.362Z,2.07
2022-11-23T11:48:05.380Z,1.77
2022-11-23T11:50:57.592Z,1.93
2022-11-23T11:53:33.764Z,1.90
2022-11-23T11:56:17.276Z,1.40
2022-11-23T11:58:54.918Z,1.40
2022-11-23T12:01:33.836Z,1.50
2022-11-23T12:04:21.561Z,1.70
2022-11-23T12:06:57.591Z,1.30
2022-11-23T12:09:33.607Z,1.10
2022-11-23T12:12:12.670Z,1.20
2022-11-23T12:14:46.874Z,1.10
2022-11-23T12:17:32.739Z,1.27
2022-11-23T12:20:17.668Z,1.20
2022-11-23T12:23:01.666Z,1.00
2022-11-23T12:25:57.516Z,1.13
2022-11-23T12:28:49.817Z,1.07
2022-11-23T12:31:31.997Z,1.20
2022-11-23T12:34:04.900Z,1.23
2022-11-23T12:36:49.084Z,1.17
2022-11-23T12:39:40.758Z,1.63
2022-11-23T12:42:31.821Z,1.30
2022-11-23T12:45:26.426Z,1.07
2022-11-23T12:48:08.519Z,0.90
2022-11-23T12:50:41.434Z,1.37
2022-11-23T12:53:17.591Z,1.17
2022-11-23T12:55:59.540Z,1.20
2022-11-23T12:58:34.268Z,1.20
2022-11-23T13:01:14.737Z,1.20
2022-11-23T13:03:50.762Z,1.17
2022-11-23T13:06:38.999Z,1.00
2022-11-23T13:09:32.317Z,0.83
2022-11-23T13:12:27.331Z,0.80
2022-11-23T13:15:06.320Z,0.80
2022-11-23T13:17:58.072Z,1.20
2022-11-23T13:20:31.025Z,1.00
2022-11-23T13:23:06.664Z,0.90
2022-11-23T13:25:39.665Z,1.10
2022-11-23T13:28:31.593Z,1.10
2022-11-23T13:31:16.741Z,0.93
2022-11-23T13:33:55.287Z,1.20
2022-11-23T13:37:04.360Z,0.80
2022-11-23T13:39:42.669Z,1.10
2022-11-23T13:42:15.832Z,1.00
2022-11-23T13:44:48.805Z,0.73
2022-11-23T13:47:21.761Z,0.83
2022-11-23T13:50:08.125Z,0.90
2022-11-23T13:52:48.919Z,0.90
2022-11-23T13:55:42.096Z,0.80
2022-11-23T13:58:24.447Z,0.80
2022-11-23T14:00:58.420Z,0.90
2022-11-23T14:03:49.370Z,0.80
2022-11-23T14:06:27.576Z,1.00
2022-11-23T14:09:07.472Z,1.00
2022-11-23T14:11:49.304Z,1.00
2022-11-23T14:14:24.898Z,0.77
2022-11-23T14:17:03.603Z,0.77
2022-11-23T14:19:51.681Z,0.80
2022-11-23T14:22:43.448Z,0.77
2022-11-23T14:25:36.644Z,1.00
2022-11-23T14:28:23.832Z,1.10
2022-11-23T14:31:07.560Z,0.90
2022-11-23T14:33:56.338Z,1.35
2022-11-23T14:36:32.457Z,1.10
2022-11-23T14:39:05.361Z,1.40
2022-11-23T14:41:41.069Z,1.30
2022-11-23T14:44:15.008Z,1.30
2022-11-23T14:47:01.600Z,0.70
2022-11-23T14:49:35.079Z,0.90
2022-11-23T14:52:16.947Z,1.10
2022-11-23T14:54:53.926Z,1.07
2022-11-23T14:57:29.009Z,1.13
2022-11-23T15:00:07.056Z,1.10
2022-11-23T15:02:43.618Z,0.90
2022-11-23T15:05:26.670Z,0.97
2022-11-23T15:08:02.647Z,1.20
2022-11-23T15:10:41.690Z,1.10
2022-11-23T15:13:22.496Z,1.33
2022-11-23T15:15:56.237Z,1.20
2022-11-23T15:18:30.259Z,1.20
2022-11-23T15:21:04.683Z,1.60
2022-11-23T15:23:41.064Z,1.00
2022-11-23T15:26:34.657Z,1.00
2022-11-23T15:29:28.397Z,1.10
2022-11-23T15:34:56.378Z,1.17
2022-11-23T15:37:29.578Z,1.10
2022-11-23T15:40:06.351Z,1.23
2022-11-23T15:42:39.350Z,1.07
2022-11-23T15:45:31.229Z,1.43
2022-11-23T15:48:05.753Z,1.20
2022-11-23T15:50:51.325Z,1.13
2022-11-23T15:53:36.420Z,1.33
2022-11-23T15:56:15.156Z,1.65
2022-11-23T15:58:48.838Z,1.23
2022-11-23T16:01:22.109Z,1.10
2022-11-23T16:04:04.421Z,1.00
2022-11-23T16:06:41.395Z,1.30
2022-11-23T16:09:50.746Z,1.40
2022-11-23T16:12:26.460Z,1.13
2022-11-23T16:15:22.383Z,1.43
2022-11-23T16:17:55.408Z,1.07
2022-11-23T16:20:29.429Z,1.03
2022-11-23T16:23:02.505Z,1.53
2022-11-23T16:25:36.214Z,1.47
2022-11-23T16:28:22.260Z,1.20
2022-11-23T16:30:55.257Z,1.30
2022-11-23T16:33:28.670Z,1.20
2022-11-23T16:36:01.574Z,1.43
2022-11-23T16:38:34.523Z,1.00
2022-11-23T16:41:07.495Z,1.30
2022-11-23T16:43:40.425Z,1.00
2022-11-23T16:46:22.430Z,1.00
2022-11-23T16:48:57.333Z,1.10
2022-11-23T16:51:30.292Z,1.17
2022-11-23T16:54:31.742Z,1.27
2022-11-23T16:56:56.179Z,0.90
2022-11-23T16:59:29.079Z,0.87
2022-11-23T17:02:02.031Z,1.00
2022-11-23T17:04:35.212Z,1.00
2022-11-23T17:07:08.355Z,1.00
2022-11-23T17:09:41.372Z,1.10
2022-11-23T17:12:18.382Z,0.80
2022-11-23T17:14:51.451Z,1.00
2022-11-23T17:17:24.369Z,1.07
2022-11-23T17:20:02.485Z,0.90
2022-11-23T17:22:36.932Z,0.90
2022-11-23T17:25:14.984Z,1.30
2022-11-23T17:27:48.403Z,1.03
2022-11-23T17:30:22.658Z,1.00
2022-11-23T17:32:55.560Z,1.10
2022-11-23T17:35:31.659Z,1.10
2022-11-23T17:38:07.829Z,1.37
2022-11-23T17:40:41.044Z,1.50
2022-11-23T17:43:14.395Z,1.20
2022-11-23T17:45:47.654Z,1.10
2022-11-23T17:48:23.695Z,1.20
2022-11-23T17:50:56.799Z,1.07
2022-11-23T17:53:29.743Z,1.43
2022-11-23T17:56:02.755Z,1.27
2022-11-23T17:58:35.663Z,1.20
2022-11-23T18:01:11.402Z,1.50
2022-11-23T18:03:44.841Z,1.40
2022-11-23T18:06:22.036Z,1.67
2022-11-23T18:08:54.911Z,1.70
2022-11-23T18:11:28.559Z,1.30
2022-11-23T18:14:03.117Z,1.37
2022-11-23T18:16:36.081Z,1.00
2022-11-23T18:19:09.055Z,1.20
2022-11-23T18:21:42.590Z,1.58
2022-11-23T18:24:15.638Z,1.50
2022-11-23T18:26:48.539Z,1.50
2022-11-23T18:29:21.427Z,1.40
2022-11-23T18:31:54.462Z,1.60
2022-11-23T18:34:27.613Z,1.27
2022-11-23T18:37:00.540Z,1.53
2022-11-23T18:39:33.649Z,1.20
2022-11-23T18:42:06.757Z,1.53
2022-11-23T18:44:39.671Z,1.30
2022-11-23T18:47:12.573Z,1.43
2022-11-23T18:49:45.459Z,1.47
2022-11-23T18:52:18.352Z,1.53
2022-11-23T18:54:51.304Z,1.73
2022-11-23T18:57:24.650Z,1.60
2022-11-23T18:59:58.838Z,1.63
2022-11-23T19:02:32.685Z,1.40
2022-11-23T19:05:05.763Z,1.80
2022-11-23T19:07:38.743Z,1.60
2022-11-23T19:10:11.668Z,1.90
2022-11-23T19:12:44.769Z,1.53
2022-11-23T19:15:17.663Z,1.93
2022-11-23T19:17:50.687Z,1.53
2022-11-23T19:20:23.645Z,1.47
2022-11-23T19:22:57.072Z,1.63
2022-11-23T19:25:30.036Z,1.70
2022-11-23T19:28:02.937Z,1.50
2022-11-23T19:30:35.847Z,1.33
2022-11-23T19:33:08.760Z,2.37
2022-11-23T19:35:41.640Z,5.27
2022-11-23T19:38:16.620Z,3.00
2022-11-23T19:40:54.899Z,1.60
2022-11-23T19:43:27.774Z,2.10
2022-11-23T19:46:01.734Z,1.57
2022-11-23T19:48:35.132Z,1.60
2022-11-23T19:51:10.989Z,1.63
2022-11-23T19:53:44.832Z,1.40
2022-11-23T19:56:31.032Z,1.40
2022-11-23T19:59:04.183Z,1.57
2022-11-23T20:01:37.594Z,1.50
2022-11-23T20:04:11.117Z,1.70
2022-11-23T20:06:44.196Z,1.33
2022-11-23T20:09:19.127Z,1.13
2022-11-23T20:11:52.138Z,1.40
2022-11-23T20:14:25.070Z,1.50
2022-11-23T20:16:58.165Z,1.30
2022-11-23T20:19:31.288Z,1.30
2022-11-23T20:22:04.419Z,1.67
2022-11-23T20:24:37.337Z,1.40
2022-11-23T20:27:10.500Z,1.10
2022-11-23T20:29:43.468Z,1.40
2022-11-23T20:32:16.391Z,1.63
2022-11-23T20:34:49.315Z,1.37
2022-11-23T20:37:22.217Z,1.53
2022-11-23T20:39:55.243Z,1.20
2022-11-23T20:42:29.080Z,1.53
2022-11-23T20:45:02.088Z,1.27
2022-11-23T20:47:35.035Z,1.93
2022-11-23T20:50:08.233Z,1.50
2022-11-23T20:52:41.142Z,1.17
2022-11-23T20:55:16.004Z,1.50
2022-11-23T20:57:48.900Z,1.00
2022-11-23T21:00:22.701Z,1.10
2022-11-23T21:02:56.629Z,1.60
2022-11-23T21:05:29.563Z,1.27
2022-11-23T21:08:02.554Z,1.37
2022-11-23T21:10:58.574Z,1.20
2022-11-23T21:13:50.349Z,0.93
2022-11-23T21:16:23.316Z,1.47
2022-11-23T21:18:56.243Z,1.70
2022-11-23T21:21:29.313Z,2.10
2022-11-23T21:24:02.297Z,1.37
2022-11-23T21:26:35.284Z,1.63
2022-11-23T21:29:09.734Z,1.30
2022-11-23T21:31:43.665Z,1.70
2022-11-23T21:34:21.119Z,1.77
2022-11-23T21:36:54.656Z,1.07
2022-11-23T21:39:29.943Z,1.57
2022-11-23T21:42:03.331Z,1.40
2022-11-23T21:44:36.583Z,1.40
2022-11-23T21:47:09.651Z,1.40
2022-11-23T21:49:42.602Z,1.53
2022-11-23T21:52:15.600Z,1.63
2022-11-23T21:54:49.279Z,1.10
2022-11-23T21:57:22.264Z,1.33
2022-11-23T21:59:55.188Z,1.33
2022-11-23T22:02:28.207Z,1.20
2022-11-23T22:05:01.192Z,1.43
2022-11-23T22:07:34.424Z,1.40
2022-11-23T22:10:07.717Z,1.48
2022-11-23T22:12:40.680Z,1.07
2022-11-23T22:15:13.664Z,1.20
2022-11-23T22:17:46.667Z,1.33
2022-11-23T22:20:19.616Z,1.40
2022-11-23T22:22:52.600Z,1.53
2022-11-23T22:25:25.683Z,1.42
2022-11-23T22:27:59.493Z,1.53
2022-11-23T22:30:32.484Z,1.17
2022-11-23T22:33:05.500Z,1.03
2022-11-23T22:35:38.437Z,1.10
2022-11-23T22:38:14.487Z,1.63
2022-11-23T22:40:47.723Z,1.27
2022-11-23T22:43:20.671Z,1.40
2022-11-23T22:45:53.952Z,1.57
2022-11-23T22:48:27.115Z,1.30
2022-11-23T22:51:01.321Z,1.20
2022-11-23T22:53:34.551Z,1.30
2022-11-23T22:56:08.116Z,1.73
2022-11-23T22:58:41.493Z,1.30
2022-11-23T23:01:16.481Z,1.10
2022-11-23T23:03:52.613Z,1.40
2022-11-23T23:06:26.717Z,1.40
2022-11-23T23:09:00.319Z,1.00
2022-11-23T23:11:34.065Z,1.30
2022-11-23T23:14:07.138Z,1.20
2022-11-23T23:16:40.217Z,1.20
2022-11-23T23:19:13.258Z,1.10
2022-11-23T23:21:46.208Z,1.40
2022-11-23T23:24:20.272Z,1.43
2022-11-23T23:26:53.229Z,1.60
2022-11-23T23:29:26.218Z,1.13
2022-11-23T23:31:59.279Z,1.30
2022-11-23T23:34:32.692Z,1.20
2022-11-23T23:37:05.979Z,2.20
2022-11-23T23:39:39.192Z,1.53
2022-11-23T23:42:12.239Z,1.33
2022-11-23T23:44:45.249Z,1.50
2022-11-23T23:47:18.504Z,1.03
2022-11-23T23:49:51.515Z,1.00
2022-11-23T23:52:24.451Z,2.00
2022-11-23T23:54:57.482Z,1.30
2022-11-23T23:57:30.904Z,1.27
